UPS223 CYVR-KPDX
Flight info
| Callsign | UPS223 |
|---|---|
| Flight time | 0h 44m |
| Altitude | 29000 |
| Route | SEA DCT BUWZO KRATR2 |
| Aircraft | A343/H-SDE2E3FGHIJ4J5M1RWXY/LB1D1 |
Departure
| Time | 2026-05-05 00:16 |
|---|---|
| Airport | Vancouver International Airport (CYVR) |
Arrival
| Time | 2026-05-05 01:00 |
|---|---|
| Airport | Portland International Airport (KPDX) |
| Time | Latitude | Longitude | Altitude | Speed | Heading |
|---|---|---|---|---|---|
| 2026-05-04 23:41 | 49.19869 | -123.17059 | 20 ft | 0 kts | 89° |
| 2026-05-04 23:59 | 49.19869 | -123.17084 | 23 ft | 4 kts | 89° |
| 2026-05-05 00:00 | 49.19868 | -123.17125 | 20 ft | 4 kts | 89° |
| 2026-05-05 00:00 | 49.19868 | -123.17149 | 23 ft | 4 kts | 88° |
| 2026-05-05 00:00 | 49.19852 | -123.17184 | 25 ft | 4 kts | 13° |
| 2026-05-05 00:00 | 49.19832 | -123.17188 | 23 ft | 0 kts | 359° |
| 2026-05-05 00:04 | 49.19839 | -123.17188 | 24 ft | 5 kts | 359° |
| 2026-05-05 00:05 | 49.19901 | -123.17168 | 23 ft | 11 kts | 30° |
| 2026-05-05 00:05 | 49.19953 | -123.17151 | 20 ft | 4 kts | 333° |
| 2026-05-05 00:05 | 49.19971 | -123.17180 | 20 ft | 7 kts | 299° |
| 2026-05-05 00:05 | 49.19988 | -123.17323 | 23 ft | 21 kts | 279° |
| 2026-05-05 00:06 | 49.20017 | -123.17578 | 23 ft | 25 kts | 281° |
| 2026-05-05 00:06 | 49.20047 | -123.17835 | 23 ft | 24 kts | 280° |
| 2026-05-05 00:06 | 49.20077 | -123.18088 | 22 ft | 24 kts | 280° |
| 2026-05-05 00:06 | 49.20107 | -123.18327 | 23 ft | 20 kts | 279° |
| 2026-05-05 00:07 | 49.20112 | -123.18380 | 22 ft | 1 kts | 278° |
| 2026-05-05 00:07 | 49.20123 | -123.18498 | 22 ft | 18 kts | 279° |
| 2026-05-05 00:07 | 49.20145 | -123.18685 | 26 ft | 18 kts | 280° |
| 2026-05-05 00:07 | 49.20167 | -123.18875 | 24 ft | 18 kts | 281° |
| 2026-05-05 00:08 | 49.20162 | -123.19007 | 25 ft | 8 kts | 236° |
| 2026-05-05 00:08 | 49.20093 | -123.19042 | 25 ft | 17 kts | 189° |
| 2026-05-05 00:08 | 49.19933 | -123.19081 | 23 ft | 30 kts | 189° |
| 2026-05-05 00:08 | 49.19806 | -123.19112 | 21 ft | 13 kts | 190° |
| 2026-05-05 00:09 | 49.19711 | -123.19140 | 21 ft | 14 kts | 191° |
| 2026-05-05 00:09 | 49.19611 | -123.19168 | 21 ft | 15 kts | 189° |
| 2026-05-05 00:09 | 49.19519 | -123.19119 | 21 ft | 15 kts | 144° |
| 2026-05-05 00:09 | 49.19439 | -123.19023 | 23 ft | 15 kts | 142° |
| 2026-05-05 00:10 | 49.19354 | -123.18924 | 24 ft | 16 kts | 142° |
| 2026-05-05 00:10 | 49.19266 | -123.18816 | 24 ft | 17 kts | 141° |
| 2026-05-05 00:10 | 49.19172 | -123.18702 | 24 ft | 18 kts | 141° |
| 2026-05-05 00:10 | 49.19075 | -123.18584 | 25 ft | 18 kts | 141° |
| 2026-05-05 00:11 | 49.18976 | -123.18459 | 23 ft | 19 kts | 134° |
| 2026-05-05 00:11 | 49.18936 | -123.18275 | 25 ft | 19 kts | 99° |
| 2026-05-05 00:11 | 49.18912 | -123.18074 | 25 ft | 20 kts | 100° |
| 2026-05-05 00:11 | 49.18887 | -123.17856 | 31 ft | 21 kts | 100° |
| 2026-05-05 00:12 | 49.18861 | -123.17633 | 26 ft | 22 kts | 100° |
| 2026-05-05 00:12 | 49.18835 | -123.17405 | 26 ft | 22 kts | 99° |
| 2026-05-05 00:12 | 49.18810 | -123.17171 | 25 ft | 23 kts | 99° |
| 2026-05-05 00:12 | 49.18782 | -123.16931 | 26 ft | 23 kts | 100° |
| 2026-05-05 00:13 | 49.18755 | -123.16687 | 24 ft | 24 kts | 99° |
| 2026-05-05 00:13 | 49.18727 | -123.16440 | 24 ft | 24 kts | 100° |
| 2026-05-05 00:13 | 49.18680 | -123.16263 | 24 ft | 15 kts | 134° |
| 2026-05-05 00:13 | 49.18639 | -123.16210 | 27 ft | 0 kts | 150° |
| 2026-05-05 00:14 | 49.18637 | -123.16209 | 27 ft | 2 kts | 150° |
| 2026-05-05 00:14 | 49.18569 | -123.16199 | 28 ft | 17 kts | 190° |
| 2026-05-05 00:14 | 49.18502 | -123.16321 | 25 ft | 16 kts | 273° |
| 2026-05-05 00:15 | 49.18504 | -123.16336 | 28 ft | 0 kts | 277° |
| 2026-05-05 00:15 | 49.18521 | -123.16505 | 25 ft | 43 kts | 279° |
| 2026-05-05 00:15 | 49.18610 | -123.17277 | 25 ft | 102 kts | 280° |
| 2026-05-05 00:15 | 49.18759 | -123.18591 | 20 ft | 148 kts | 279° |
| 2026-05-05 00:16 | 49.18964 | -123.20318 | 150 ft | 177 kts | 278° |
| 2026-05-05 00:16 | 49.19128 | -123.22262 | 542 ft | 191 kts | 275° |
| 2026-05-05 00:16 | 49.19270 | -123.24311 | 1085 ft | 196 kts | 274° |
| 2026-05-05 00:16 | 49.19149 | -123.26462 | 1427 ft | 214 kts | 259° |
| 2026-05-05 00:17 | 49.18861 | -123.28831 | 1745 ft | 239 kts | 259° |
| 2026-05-05 00:17 | 49.18571 | -123.31414 | 2451 ft | 251 kts | 261° |
| 2026-05-05 00:17 | 49.18140 | -123.34016 | 3383 ft | 255 kts | 248° |
| 2026-05-05 00:17 | 49.17200 | -123.36298 | 4300 ft | 261 kts | 227° |
| 2026-05-05 00:18 | 49.15654 | -123.37800 | 5178 ft | 271 kts | 199° |
| 2026-05-05 00:18 | 49.13756 | -123.37955 | 6048 ft | 280 kts | 171° |
| 2026-05-05 00:18 | 49.11852 | -123.37195 | 6919 ft | 285 kts | 160° |
| 2026-05-05 00:18 | 49.10008 | -123.36032 | 7822 ft | 288 kts | 155° |
| 2026-05-05 00:19 | 49.08192 | -123.34703 | 8710 ft | 291 kts | 153° |
| 2026-05-05 00:19 | 49.06360 | -123.33329 | 9602 ft | 295 kts | 153° |
| 2026-05-05 00:19 | 49.04492 | -123.31967 | 10336 ft | 302 kts | 154° |
| 2026-05-05 00:19 | 49.02515 | -123.30582 | 10673 ft | 323 kts | 155° |
| 2026-05-05 00:20 | 49.00387 | -123.29151 | 10958 ft | 344 kts | 155° |
| 2026-05-05 00:20 | 48.98143 | -123.27683 | 11393 ft | 357 kts | 156° |
| 2026-05-05 00:20 | 48.95822 | -123.26189 | 11995 ft | 365 kts | 156° |
| 2026-05-05 00:20 | 48.93488 | -123.24694 | 12637 ft | 372 kts | 156° |
| 2026-05-05 00:21 | 48.91081 | -123.23154 | 13304 ft | 378 kts | 156° |
| 2026-05-05 00:21 | 48.88635 | -123.21586 | 13943 ft | 384 kts | 156° |
| 2026-05-05 00:21 | 48.86152 | -123.19992 | 14573 ft | 389 kts | 156° |
| 2026-05-05 00:21 | 48.83639 | -123.18378 | 15231 ft | 394 kts | 156° |
| 2026-05-05 00:22 | 48.81101 | -123.16748 | 15884 ft | 398 kts | 156° |
| 2026-05-05 00:22 | 48.78532 | -123.15099 | 16539 ft | 402 kts | 155° |
| 2026-05-05 00:22 | 48.75936 | -123.13434 | 17230 ft | 405 kts | 156° |
| 2026-05-05 00:22 | 48.73357 | -123.11783 | 17893 ft | 410 kts | 155° |
| 2026-05-05 00:23 | 48.70716 | -123.10093 | 18452 ft | 415 kts | 155° |
| 2026-05-05 00:23 | 48.68040 | -123.08383 | 18996 ft | 419 kts | 155° |
| 2026-05-05 00:23 | 48.65337 | -123.06658 | 19516 ft | 424 kts | 155° |
| 2026-05-05 00:23 | 48.62600 | -123.04913 | 20083 ft | 428 kts | 155° |
| 2026-05-05 00:24 | 48.59844 | -123.03159 | 20632 ft | 432 kts | 155° |
| 2026-05-05 00:24 | 48.57059 | -123.01388 | 21170 ft | 436 kts | 155° |
| 2026-05-05 00:24 | 48.54247 | -122.99602 | 21700 ft | 440 kts | 155° |
| 2026-05-05 00:24 | 48.51411 | -122.97803 | 22220 ft | 444 kts | 155° |
| 2026-05-05 00:25 | 48.48548 | -122.95990 | 22741 ft | 448 kts | 155° |
| 2026-05-05 00:25 | 48.45657 | -122.94160 | 23228 ft | 452 kts | 155° |
| 2026-05-05 00:25 | 48.42785 | -122.92345 | 23664 ft | 455 kts | 155° |
| 2026-05-05 00:25 | 48.39846 | -122.90490 | 24080 ft | 459 kts | 155° |
| 2026-05-05 00:26 | 48.36896 | -122.88631 | 24508 ft | 461 kts | 155° |
| 2026-05-05 00:26 | 48.33925 | -122.86761 | 24873 ft | 464 kts | 155° |
| 2026-05-05 00:26 | 48.30936 | -122.84882 | 25266 ft | 467 kts | 155° |
| 2026-05-05 00:26 | 48.27920 | -122.82988 | 25672 ft | 470 kts | 155° |
| 2026-05-05 00:27 | 48.24890 | -122.81088 | 26158 ft | 473 kts | 155° |
| 2026-05-05 00:27 | 48.21849 | -122.79183 | 26553 ft | 475 kts | 155° |
| 2026-05-05 00:27 | 48.18786 | -122.77267 | 26930 ft | 478 kts | 155° |
| 2026-05-05 00:27 | 48.15714 | -122.75348 | 27307 ft | 480 kts | 155° |
| 2026-05-05 00:28 | 48.12613 | -122.73414 | 27698 ft | 482 kts | 155° |
| 2026-05-05 00:28 | 48.09508 | -122.71479 | 28074 ft | 485 kts | 155° |
| 2026-05-05 00:28 | 48.06414 | -122.69554 | 28396 ft | 487 kts | 155° |
| 2026-05-05 00:28 | 48.03276 | -122.67604 | 28741 ft | 490 kts | 155° |
| 2026-05-05 00:29 | 48.00120 | -122.65645 | 28872 ft | 488 kts | 155° |
| 2026-05-05 00:29 | 47.97021 | -122.63728 | 28873 ft | 475 kts | 155° |
| 2026-05-05 00:29 | 47.93995 | -122.61859 | 28866 ft | 470 kts | 155° |
| 2026-05-05 00:30 | 47.87976 | -122.58141 | 28878 ft | 470 kts | 155° |
| 2026-05-05 00:30 | 47.81940 | -122.54417 | 28902 ft | 469 kts | 155° |
| 2026-05-05 00:31 | 47.75910 | -122.50708 | 28896 ft | 469 kts | 155° |
| 2026-05-05 00:31 | 47.69880 | -122.47011 | 28893 ft | 468 kts | 155° |
| 2026-05-05 00:32 | 47.63852 | -122.43324 | 28887 ft | 468 kts | 155° |
| 2026-05-05 00:32 | 47.57829 | -122.39650 | 28887 ft | 468 kts | 155° |
| 2026-05-05 00:33 | 47.51832 | -122.36000 | 28897 ft | 468 kts | 155° |
| 2026-05-05 00:33 | 47.45796 | -122.32380 | 28908 ft | 469 kts | 158° |
| 2026-05-05 00:33 | 47.42614 | -122.31271 | 28916 ft | 472 kts | 172° |
| 2026-05-05 00:34 | 47.39332 | -122.31017 | 28917 ft | 472 kts | 178° |
| 2026-05-05 00:34 | 47.36035 | -122.30975 | 28796 ft | 476 kts | 179° |
| 2026-05-05 00:34 | 47.32672 | -122.30966 | 28642 ft | 490 kts | 179° |
| 2026-05-05 00:34 | 47.29238 | -122.30963 | 28423 ft | 494 kts | 179° |
| 2026-05-05 00:35 | 47.25811 | -122.30963 | 28138 ft | 490 kts | 179° |
| 2026-05-05 00:35 | 47.22420 | -122.30964 | 27813 ft | 485 kts | 179° |
| 2026-05-05 00:35 | 47.19106 | -122.30964 | 27340 ft | 480 kts | 179° |
| 2026-05-05 00:35 | 47.15769 | -122.30964 | 26830 ft | 478 kts | 179° |
| 2026-05-05 00:36 | 47.12458 | -122.30964 | 26301 ft | 475 kts | 179° |
| 2026-05-05 00:36 | 47.09155 | -122.30964 | 25809 ft | 473 kts | 179° |
| 2026-05-05 00:36 | 47.05872 | -122.30964 | 25281 ft | 470 kts | 179° |
| 2026-05-05 00:36 | 47.02605 | -122.30964 | 24761 ft | 469 kts | 179° |
| 2026-05-05 00:37 | 46.99346 | -122.30965 | 24233 ft | 467 kts | 179° |
| 2026-05-05 00:37 | 46.96109 | -122.30965 | 23707 ft | 465 kts | 179° |
| 2026-05-05 00:37 | 46.92876 | -122.30970 | 23146 ft | 463 kts | 179° |
| 2026-05-05 00:37 | 46.89665 | -122.30969 | 22603 ft | 459 kts | 179° |
| 2026-05-05 00:38 | 46.86481 | -122.30967 | 22106 ft | 455 kts | 179° |
| 2026-05-05 00:38 | 46.83326 | -122.30965 | 21593 ft | 451 kts | 179° |
| 2026-05-05 00:38 | 46.80196 | -122.30964 | 21094 ft | 447 kts | 179° |
| 2026-05-05 00:38 | 46.77092 | -122.30963 | 20595 ft | 444 kts | 179° |
| 2026-05-05 00:39 | 46.74055 | -122.30962 | 20108 ft | 440 kts | 179° |
| 2026-05-05 00:39 | 46.71002 | -122.30962 | 19621 ft | 437 kts | 179° |
| 2026-05-05 00:39 | 46.67974 | -122.30962 | 19134 ft | 434 kts | 180° |
| 2026-05-05 00:39 | 46.64960 | -122.30961 | 18649 ft | 431 kts | 180° |
| 2026-05-05 00:40 | 46.61977 | -122.30961 | 18155 ft | 427 kts | 180° |
| 2026-05-05 00:40 | 46.59013 | -122.30962 | 17644 ft | 423 kts | 180° |
| 2026-05-05 00:40 | 46.57064 | -122.30962 | 17318 ft | 421 kts | 180° |
| 2026-05-05 00:40 | 46.54149 | -122.30961 | 16836 ft | 416 kts | 180° |
| 2026-05-05 00:41 | 46.51270 | -122.30962 | 16352 ft | 412 kts | 180° |
| 2026-05-05 00:41 | 46.47486 | -122.30961 | 15742 ft | 407 kts | 180° |
| 2026-05-05 00:41 | 46.45578 | -122.30961 | 15427 ft | 405 kts | 180° |
| 2026-05-05 00:41 | 46.42771 | -122.30961 | 14954 ft | 401 kts | 180° |
| 2026-05-05 00:42 | 46.39991 | -122.30961 | 14492 ft | 398 kts | 180° |
| 2026-05-05 00:42 | 46.37258 | -122.30961 | 14037 ft | 396 kts | 180° |
| 2026-05-05 00:42 | 46.34508 | -122.30962 | 13556 ft | 393 kts | 180° |
| 2026-05-05 00:42 | 46.31781 | -122.30962 | 13072 ft | 390 kts | 179° |
| 2026-05-05 00:43 | 46.29075 | -122.30961 | 12609 ft | 387 kts | 180° |
| 2026-05-05 00:43 | 46.26387 | -122.31053 | 12143 ft | 383 kts | 186° |
| 2026-05-05 00:43 | 46.23852 | -122.31945 | 11708 ft | 380 kts | 200° |
| 2026-05-05 00:43 | 46.21355 | -122.33310 | 11249 ft | 377 kts | 201° |
| 2026-05-05 00:44 | 46.18922 | -122.34694 | 10800 ft | 374 kts | 201° |
| 2026-05-05 00:44 | 46.16524 | -122.36051 | 10510 ft | 365 kts | 201° |
| 2026-05-05 00:44 | 46.14205 | -122.37354 | 10413 ft | 351 kts | 201° |
| 2026-05-05 00:44 | 46.11994 | -122.38590 | 10287 ft | 340 kts | 201° |
| 2026-05-05 00:45 | 46.09821 | -122.39802 | 10150 ft | 330 kts | 201° |
| 2026-05-05 00:45 | 46.07704 | -122.40986 | 10032 ft | 320 kts | 201° |
| 2026-05-05 00:45 | 46.05651 | -122.42099 | 10004 ft | 309 kts | 200° |
| 2026-05-05 00:45 | 46.03650 | -122.43170 | 10005 ft | 305 kts | 200° |
| 2026-05-05 00:46 | 46.01661 | -122.44233 | 10000 ft | 305 kts | 200° |
| 2026-05-05 00:46 | 45.99687 | -122.45292 | 9928 ft | 300 kts | 200° |
| 2026-05-05 00:46 | 45.97737 | -122.46340 | 9556 ft | 300 kts | 200° |
| 2026-05-05 00:46 | 45.95794 | -122.47384 | 9181 ft | 302 kts | 200° |
| 2026-05-05 00:47 | 45.93812 | -122.48347 | 8849 ft | 301 kts | 193° |
| 2026-05-05 00:47 | 45.91745 | -122.48410 | 8636 ft | 294 kts | 170° |
| 2026-05-05 00:47 | 45.89798 | -122.47852 | 8434 ft | 277 kts | 167° |
| 2026-05-05 00:47 | 45.87953 | -122.47247 | 8140 ft | 267 kts | 167° |
| 2026-05-05 00:48 | 45.86157 | -122.46659 | 7722 ft | 262 kts | 167° |
| 2026-05-05 00:48 | 45.84383 | -122.46083 | 7241 ft | 260 kts | 167° |
| 2026-05-05 00:48 | 45.82623 | -122.45519 | 6744 ft | 258 kts | 168° |
| 2026-05-05 00:48 | 45.80896 | -122.44977 | 6296 ft | 257 kts | 168° |
| 2026-05-05 00:49 | 45.79138 | -122.44414 | 6033 ft | 259 kts | 168° |
| 2026-05-05 00:49 | 45.77375 | -122.43850 | 5996 ft | 259 kts | 168° |
| 2026-05-05 00:49 | 45.75615 | -122.43290 | 5997 ft | 258 kts | 168° |
| 2026-05-05 00:49 | 45.73859 | -122.42733 | 6003 ft | 258 kts | 168° |
| 2026-05-05 00:50 | 45.72113 | -122.42181 | 5998 ft | 257 kts | 168° |
| 2026-05-05 00:50 | 45.70360 | -122.41625 | 6016 ft | 258 kts | 168° |
| 2026-05-05 00:50 | 45.68604 | -122.41068 | 5994 ft | 258 kts | 168° |
| 2026-05-05 00:50 | 45.66848 | -122.40514 | 5853 ft | 259 kts | 168° |
| 2026-05-05 00:51 | 45.65090 | -122.39960 | 5580 ft | 258 kts | 168° |
| 2026-05-05 00:51 | 45.63334 | -122.39404 | 5310 ft | 258 kts | 168° |
| 2026-05-05 00:51 | 45.61700 | -122.38443 | 5029 ft | 258 kts | 141° |
| 2026-05-05 00:51 | 45.60506 | -122.36552 | 4792 ft | 257 kts | 123° |
| 2026-05-05 00:52 | 45.59484 | -122.34462 | 4499 ft | 257 kts | 122° |
| 2026-05-05 00:52 | 45.58471 | -122.32359 | 4220 ft | 256 kts | 123° |
| 2026-05-05 00:52 | 45.57462 | -122.30282 | 4030 ft | 251 kts | 124° |
| 2026-05-05 00:52 | 45.56484 | -122.28289 | 4001 ft | 239 kts | 124° |
| 2026-05-05 00:53 | 45.55433 | -122.26537 | 3936 ft | 229 kts | 144° |
| 2026-05-05 00:53 | 45.54030 | -122.25764 | 3904 ft | 214 kts | 179° |
| 2026-05-05 00:53 | 45.52625 | -122.26067 | 3837 ft | 198 kts | 200° |
| 2026-05-05 00:53 | 45.51340 | -122.26705 | 3509 ft | 194 kts | 204° |
| 2026-05-05 00:54 | 45.50080 | -122.27407 | 3158 ft | 195 kts | 204° |
| 2026-05-05 00:54 | 45.48947 | -122.28389 | 2998 ft | 185 kts | 232° |
| 2026-05-05 00:54 | 45.48433 | -122.29971 | 3005 ft | 172 kts | 259° |
| 2026-05-05 00:54 | 45.48250 | -122.31648 | 3011 ft | 171 kts | 264° |
| 2026-05-05 00:55 | 45.48409 | -122.33238 | 3032 ft | 159 kts | 286° |
| 2026-05-05 00:55 | 45.48829 | -122.34650 | 3021 ft | 153 kts | 294° |
| 2026-05-05 00:55 | 45.49327 | -122.36010 | 3017 ft | 156 kts | 296° |
| 2026-05-05 00:55 | 45.49853 | -122.37375 | 2985 ft | 158 kts | 297° |
| 2026-05-05 00:56 | 45.50388 | -122.38742 | 2914 ft | 159 kts | 297° |
| 2026-05-05 00:56 | 45.50926 | -122.40117 | 2848 ft | 159 kts | 297° |
| 2026-05-05 00:56 | 45.51463 | -122.41492 | 2669 ft | 158 kts | 296° |
| 2026-05-05 00:56 | 45.51994 | -122.42857 | 2456 ft | 157 kts | 297° |
| 2026-05-05 00:57 | 45.52521 | -122.44204 | 2236 ft | 153 kts | 296° |
| 2026-05-05 00:57 | 45.53025 | -122.45493 | 2049 ft | 144 kts | 295° |
| 2026-05-05 00:57 | 45.53496 | -122.46703 | 1859 ft | 140 kts | 296° |
| 2026-05-05 00:57 | 45.53967 | -122.47916 | 1677 ft | 139 kts | 297° |
| 2026-05-05 00:58 | 45.54439 | -122.49127 | 1491 ft | 139 kts | 297° |
| 2026-05-05 00:58 | 45.54908 | -122.50324 | 1305 ft | 138 kts | 297° |
| 2026-05-05 00:58 | 45.55376 | -122.51532 | 1133 ft | 140 kts | 297° |
| 2026-05-05 00:58 | 45.55846 | -122.52737 | 941 ft | 138 kts | 296° |
| 2026-05-05 00:59 | 45.56314 | -122.53940 | 749 ft | 138 kts | 298° |
| 2026-05-05 00:59 | 45.56781 | -122.55137 | 575 ft | 138 kts | 299° |
| 2026-05-05 00:59 | 45.57247 | -122.56335 | 392 ft | 138 kts | 299° |
| 2026-05-05 00:59 | 45.57713 | -122.57531 | 215 ft | 138 kts | 299° |
| 2026-05-05 01:00 | 45.58179 | -122.58727 | 46 ft | 137 kts | 299° |
| 2026-05-05 01:00 | 45.58562 | -122.59703 | 42 ft | 73 kts | 299° |
| 2026-05-05 01:00 | 45.58711 | -122.60081 | 38 ft | 43 kts | 299° |
| 2026-05-05 01:00 | 45.58856 | -122.60450 | 34 ft | 43 kts | 299° |
| 2026-05-05 01:01 | 45.58992 | -122.60800 | 38 ft | 26 kts | 299° |
| 2026-05-05 01:01 | 45.59062 | -122.60980 | 39 ft | 23 kts | 299° |
| 2026-05-05 01:01 | 45.59145 | -122.61196 | 42 ft | 34 kts | 298° |
| 2026-05-05 01:01 | 45.59271 | -122.61521 | 32 ft | 37 kts | 299° |
| 2026-05-05 01:02 | 45.59406 | -122.61860 | 35 ft | 40 kts | 299° |
| 2026-05-05 01:02 | 45.59483 | -122.62078 | 38 ft | 12 kts | 284° |
| 2026-05-05 01:02 | 45.59431 | -122.62199 | 38 ft | 5 kts | 209° |
| 2026-05-05 01:02 | 45.59368 | -122.62244 | 39 ft | 0 kts | 199° |
| 2026-05-05 01:03 | 45.59326 | -122.62241 | 39 ft | 8 kts | 156° |
| 2026-05-05 01:03 | 45.59286 | -122.62160 | 38 ft | 13 kts | 119° |
| 2026-05-05 01:03 | 45.59237 | -122.62034 | 36 ft | 16 kts | 119° |
| 2026-05-05 01:03 | 45.59175 | -122.61877 | 32 ft | 20 kts | 119° |
| 2026-05-05 01:04 | 45.59105 | -122.61703 | 33 ft | 21 kts | 120° |
| 2026-05-05 01:04 | 45.58982 | -122.61341 | 37 ft | 19 kts | 98° |
| 2026-05-05 01:04 | 45.58977 | -122.61146 | 36 ft | 20 kts | 91° |
| 2026-05-05 01:05 | 45.58929 | -122.60963 | 36 ft | 20 kts | 120° |
| 2026-05-05 01:05 | 45.58856 | -122.60785 | 33 ft | 19 kts | 120° |
| 2026-05-05 01:05 | 45.58819 | -122.60715 | 33 ft | 8 kts | 143° |
| 2026-05-05 01:05 | 45.58735 | -122.60761 | 32 ft | 16 kts | 223° |
| 2026-05-05 01:06 | 45.58689 | -122.60830 | 33 ft | 0 kts | 229° |
| 2026-05-05 01:06 | 45.58687 | -122.60833 | 34 ft | 1 kts | 229° |
| 2026-05-05 01:06 | 45.58646 | -122.60884 | 34 ft | 15 kts | 211° |
| 2026-05-05 01:06 | 45.58563 | -122.60837 | 31 ft | 14 kts | 129° |
| 2026-05-05 01:07 | 45.58534 | -122.60798 | 32 ft | 6 kts | 153° |
| 2026-05-05 01:07 | 45.58517 | -122.60791 | 32 ft | 0 kts | 162° |
| 2026-05-05 01:07 | 45.58460 | -122.60826 | 33 ft | 0 kts | 135° |